Time;durP1;ratioP1;P1;durP2;ratioP2;P2;SDS_P1;SDS_P2;PMS_P1;PMS_P2;Temp;Humidity;BMP_temperature;BMP_pressure;BME280_temperature;BME280_humidity;BME280_pressure;Samples;Min_cycle;Max_cycle;Signal;HPM_P1;HPM_P2
2022/02/08 00:01:08;;;;;;;11.27;3.72;;;;;;;4.66;74.17;95820.44;5063197;28;20048;-62
2022/02/08 00:03:34;;;;;;;16.25;3.47;;;;;;;4.68;75.03;95834.59;5061918;28;20542;-62
2022/02/08 00:06:14;;;;;;;8.57;3.25;;;;;;;4.48;74.65;95819.31;5063209;28;20045;-57
2022/02/08 00:08:41;;;;;;;8.32;2.90;;;;;;;4.59;76.70;95855.97;5061943;28;20048;-57
2022/02/08 00:11:09;;;;;;;6.53;2.22;;;;;;;4.80;76.71;95890.47;5063381;28;20063;-62
2022/02/08 00:13:36;;;;;;;6.18;2.40;;;;;;;4.79;78.58;95888.88;5063675;28;20063;-62
2022/02/08 00:16:03;;;;;;;11.32;3.30;;;;;;;4.73;80.46;95890.34;5063149;28;20056;-61
2022/02/08 00:18:30;;;;;;;11.90;3.33;;;;;;;4.45;80.42;95858.44;5061841;28;20048;-63
2022/02/08 00:20:56;;;;;;;10.55;3.33;;;;;;;4.49;80.87;95870.25;5078697;28;21152;-58
2022/02/08 00:23:23;;;;;;;12.30;4.07;;;;;;;4.65;82.56;95898.41;5063140;28;20048;-57
2022/02/08 00:25:50;;;;;;;5.35;1.50;;;;;;;4.33;82.23;95875.00;5063360;28;20045;-58
2022/02/08 00:28:17;;;;;;;5.65;2.20;;;;;;;2.47;80.68;95577.91;5063486;28;20528;-58
2022/02/08 00:30:44;;;;;;;13.50;4.05;;;;;;;4.24;77.38;95841.53;5067035;28;20053;-59
2022/02/08 00:33:10;;;;;;;8.38;3.35;;;;;;;4.64;75.62;95883.13;5067233;28;20169;-58
2022/02/08 00:35:37;;;;;;;5.68;2.35;;;;;;;4.53;73.15;95842.91;5067339;28;20083;-62
2022/02/08 00:38:04;;;;;;;3.58;1.50;;;;;;;4.39;68.75;95821.47;5066845;28;20059;-62
2022/02/08 00:40:31;;;;;;;5.30;1.63;;;;;;;4.71;66.81;95855.00;5066745;28;20055;-62
2022/02/08 00:43:00;;;;;;;2.53;1.13;;;;;;;4.08;65.62;95744.88;5067045;28;20058;-58
2022/02/08 00:50:58;;;;;;;9.32;3.03;;;;;;;4.69;72.94;95830.69;5043514;28;20052;-62
2022/02/08 00:53:25;;;;;;;17.40;5.03;;;;;;;4.86;68.74;95861.59;5081868;28;20075;-57
2022/02/08 00:55:52;;;;;;;17.30;4.97;;;;;;;4.62;66.75;95803.16;5066904;28;20056;-62
2022/02/08 00:58:18;;;;;;;29.50;8.02;;;;;;;4.63;62.03;95804.72;5082018;28;20898;-58
2022/02/08 01:00:45;;;;;;;15.85;3.92;;;;;;;4.90;63.47;95799.34;5066051;28;20052;-62
2022/02/08 01:03:12;;;;;;;9.40;4.05;;;;;;;4.68;62.55;95765.25;5066289;28;20441;-62
2022/02/08 01:05:47;;;;;;;6.43;2.53;;;;;;;5.14;61.19;95812.75;5066056;28;20450;-57
2022/02/08 01:08:13;;;;;;;10.52;2.95;;;;;;;4.59;62.10;95746.31;5066510;28;20446;-58
2022/02/08 01:10:41;;;;;;;12.52;4.45;;;;;;;5.11;61.79;95824.41;5047971;28;20056;-59
2022/02/08 01:13:09;;;;;;;14.20;4.43;;;;;;;5.00;65.02;95834.41;5066253;28;20063;-57
2022/02/08 01:15:36;;;;;;;11.40;3.97;;;;;;;4.89;65.15;95849.88;5066311;28;20446;-62
2022/02/08 01:18:04;;;;;;;11.35;2.85;;;;;;;4.77;67.56;95819.88;5066128;28;20044;-63
2022/02/08 01:20:34;;;;;;;5.85;2.40;;;;;;;2.85;66.21;95538.94;5047841;28;20337;-57
2022/02/08 01:23:06;;;;;;;3.60;1.40;;;;;;;4.76;64.34;95840.25;5066268;28;20151;-58
2022/02/08 01:25:39;;;;;;;10.85;1.77;;;;;;;4.82;61.73;95838.78;5065802;28;20053;-62
2022/02/08 01:28:15;;;;;;;2.55;1.45;;;;;;;4.94;62.02;95827.63;5066189;28;20491;-58
2022/02/08 01:30:57;;;;;;;2.63;1.10;;;;;;;4.10;62.94;95697.94;5065679;28;20056;-62
2022/02/08 01:34:28;;;;;;;3.25;1.20;;;;;;;4.83;64.37;95823.91;5066020;28;20091;-63
2022/02/08 01:44:44;;;;;;;5.75;2.00;;;;;;;4.53;62.24;95796.31;5066014;28;20445;-61
2022/02/08 01:51:43;;;;;;;31.30;8.10;;;;;;;4.82;63.78;95877.19;5065408;28;20063;-62
2022/02/08 01:54:10;;;;;;;15.35;5.85;;;;;;;4.25;62.69;95771.84;5065207;28;20052;-58
2022/02/08 01:56:36;;;;;;;6.20;2.00;;;;;;;4.76;59.47;95851.97;5065122;28;20058;-63
2022/02/08 01:59:03;;;;;;;3.80;1.23;;;;;;;4.27;58.56;95768.75;5064783;28;20521;-62
2022/02/08 02:01:30;;;;;;;3.17;1.15;;;;;;;4.75;59.48;95855.09;5064787;28;20052;-64
2022/02/08 02:03:57;;;;;;;5.00;1.25;;;;;;;4.68;60.33;95845.56;5080248;28;20052;-61
2022/02/08 02:06:39;;;;;;;6.22;1.30;;;;;;;4.68;60.37;95848.31;5078928;28;20143;-63
2022/02/08 02:09:06;;;;;;;10.68;3.58;;;;;;;4.24;65.20;95814.13;5065603;28;20055;-57
2022/02/08 02:11:33;;;;;;;7.03;2.35;;;;;;;4.21;65.30;95869.66;5065303;28;20063;-57
2022/02/08 02:14:00;;;;;;;4.85;1.70;;;;;;;4.35;65.79;95886.41;5065295;28;20059;-57
2022/02/08 02:18:54;;;;;;;2.00;1.13;;;;;;;3.52;64.33;95782.00;5064640;28;20557;-57
2022/02/08 02:21:20;;;;;;;3.10;1.25;;;;;;;4.38;64.06;95918.56;5065104;28;20056;-62
2022/02/08 02:23:48;;;;;;;2.70;1.20;;;;;;;4.27;63.31;95900.28;5065192;28;20045;-57
2022/02/08 02:26:16;;;;;;;7.43;1.30;;;;;;;4.09;63.96;95894.44;5064767;28;20060;-58
2022/02/08 02:28:42;;;;;;;5.30;1.52;;;;;;;4.59;62.35;95979.38;5064373;28;20506;-63
2022/02/08 02:31:09;;;;;;;4.45;1.48;;;;;;;4.61;63.49;95985.28;5064326;28;20059;-63
2022/02/08 02:33:36;;;;;;;5.15;1.55;;;;;;;4.65;63.30;95977.94;5064506;28;20059;-61
2022/02/08 02:36:03;;;;;;;4.50;1.40;;;;;;;4.63;64.70;95974.75;5046637;28;20490;-58
2022/02/08 02:38:30;;;;;;;5.13;1.90;;;;;;;4.29;66.46;95941.84;5064303;28;20514;-57
2022/02/08 02:40:56;;;;;;;2.88;1.10;;;;;;;2.56;60.02;95667.91;5064125;28;20052;-63
2022/02/08 02:43:27;;;;;;;2.53;1.02;;;;;;;4.55;58.14;95967.50;5079605;28;20056;-58
2022/02/08 02:45:54;;;;;;;5.15;1.23;;;;;;;4.68;57.81;95975.63;5064419;28;20053;-59
2022/02/08 02:48:21;;;;;;;2.80;1.20;;;;;;;4.52;58.62;95940.03;5063884;28;20060;-58
2022/02/08 02:50:52;;;;;;;1.17;0.80;;;;;;;3.19;59.66;95713.22;5064269;28;20048;-58
2022/02/08 02:53:20;;;;;;;3.25;1.13;;;;;;;4.60;59.70;95931.59;5062531;28;20500;-64
2022/02/08 02:55:47;;;;;;;4.00;1.15;;;;;;;4.89;59.66;95998.81;5079557;28;20055;-64
2022/02/08 02:58:15;;;;;;;1.75;0.90;;;;;;;4.75;58.87;95954.63;5079166;28;20135;-64
2022/02/08 03:00:48;;;;;;;3.88;1.40;;;;;;;4.83;59.50;95993.97;5046038;28;20048;-57
2022/02/08 03:20:08;;;;;;;10.20;4.15;;;;;;;4.46;63.07;95953.22;5020970;28;20061;-64
2022/02/08 03:22:35;;;;;;;70.82;33.92;;;;;;;4.02;62.96;95938.09;5021025;28;20053;-57
2022/02/08 03:25:02;;;;;;;7.97;4.65;;;;;;;4.34;65.29;95994.47;5041426;28;20048;-64
2022/02/08 03:27:29;;;;;;;2.45;1.80;;;;;;;4.03;64.07;96043.78;5064067;28;20574;-60
2022/02/08 03:29:56;;;;;;;4.53;1.30;;;;;;;3.63;65.35;96002.06;5063993;28;20053;-58
2022/02/08 03:32:23;;;;;;;2.28;1.20;;;;;;;4.06;66.77;96054.03;5063586;28;20049;-64
2022/02/08 03:34:50;;;;;;;5.78;2.10;;;;;;;3.81;67.06;96022.47;5045770;28;20433;-64
2022/02/08 03:37:18;;;;;;;8.20;2.70;;;;;;;4.22;67.11;96074.00;5064167;28;20126;-64
2022/02/08 03:39:54;;;;;;;10.30;3.88;;;;;;;3.86;66.51;96016.72;5063527;28;20049;-58
2022/02/08 03:42:25;;;;;;;31.60;11.98;;;;;;;4.07;66.57;96038.41;5062305;28;20072;-59
2022/02/08 03:44:54;;;;;;;72.72;16.90;;;;;;;3.73;62.30;95968.66;5063610;28;20443;-59
2022/02/08 03:47:21;;;;;;;23.25;5.95;;;;;;;3.84;64.44;96002.59;5063935;28;20054;-60
2022/02/08 03:49:49;;;;;;;19.30;3.80;;;;;;;4.04;63.51;96045.38;5061753;28;20052;-63
2022/02/08 03:52:16;;;;;;;21.00;4.53;;;;;;;4.02;66.61;96057.81;5045356;28;20056;-58
2022/02/08 03:54:43;;;;;;;40.67;9.63;;;;;;;3.34;65.57;96004.34;5063297;28;20062;-63
2022/02/08 03:57:10;;;;;;;1.50;1.17;;;;;;;3.93;66.08;96107.31;5063618;28;20052;-64
2022/02/08 03:59:38;;;;;;;1.08;0.88;;;;;;;3.81;64.78;96058.06;5063325;28;20053;-64
2022/02/08 04:10:20;;;;;;;11.40;3.05;;;;;;;3.11;66.06;95965.84;5024307;28;20683;-64
2022/02/08 04:39:46;;;;;;;9.63;3.97;;;;;;;3.51;68.85;96169.09;5066908;28;20057;-58
2022/02/08 04:42:27;;;;;;;26.17;6.22;;;;;;;3.43;68.44;96167.28;5067316;28;20413;-58
2022/02/08 04:45:18;;;;;;;1.08;0.73;;;;;;;3.03;64.33;96136.38;5066779;28;20053;-64
2022/02/08 04:48:02;;;;;;;1.27;0.70;;;;;;;1.52;64.09;95875.56;5067349;28;20442;-58
2022/02/08 04:50:31;;;;;;;2.90;1.35;;;;;;;3.11;69.62;96147.16;5066380;28;20060;-60
2022/02/08 04:53:05;;;;;;;1.92;1.00;;;;;;;3.04;67.85;96151.63;5066484;28;20059;-57
2022/02/08 04:55:51;;;;;;;3.67;1.48;;;;;;;2.51;71.30;96149.13;5066305;28;20048;-64
2022/02/08 04:58:38;;;;;;;3.33;1.65;;;;;;;2.52;72.27;96137.06;5064785;28;20056;-64
2022/02/08 05:01:16;;;;;;;4.82;1.65;;;;;;;3.05;72.38;96224.34;5066270;28;20045;-63
2022/02/08 05:29:35;;;;;;;2.75;0.80;;;;;;;2.97;59.85;96148.69;5066092;28;20057;-62
2022/02/08 05:34:24;;;;;;;3.78;1.30;;;;;;;2.94;71.76;96280.66;5065731;28;20048;-65
2022/02/08 05:45:08;;;;;;;2.55;1.00;;;;;;;2.78;68.91;96244.16;5066109;28;20854;-57
2022/02/08 05:47:41;;;;;;;2.28;0.82;;;;;;;2.59;73.93;96257.56;5066019;28;20048;-64
2022/02/08 05:50:25;;;;;;;2.75;1.10;;;;;;;2.80;70.29;96307.47;5025926;28;20084;-65
2022/02/08 05:53:06;;;;;;;2.88;0.82;;;;;;;2.66;72.41;96323.41;5057016;28;20057;-58
2022/02/08 05:55:35;;;;;;;3.70;1.10;;;;;;;2.76;75.98;96301.09;5025483;28;20042;-57
2022/02/08 05:58:03;;;;;;;2.92;1.38;;;;;;;2.71;75.70;96325.94;5057293;28;20046;-64
2022/02/08 06:00:30;;;;;;;9.60;1.23;;;;;;;2.59;75.11;96314.97;5024168;28;20064;-65
2022/02/08 06:03:04;;;;;;;1.90;0.70;;;;;;;2.63;71.19;96343.22;5024991;28;20053;-58
2022/02/08 06:05:30;;;;;;;1.98;0.80;;;;;;;2.83;70.90;96323.22;5025664;28;20077;-57
2022/02/08 06:07:57;;;;;;;0.80;0.80;;;;;;;2.73;66.69;96351.00;5025202;28;20421;-63
2022/02/08 06:10:24;;;;;;;1.20;0.82;;;;;;;3.06;64.56;96332.63;5057520;28;20054;-62
2022/02/08 06:12:54;;;;;;;1.67;0.52;;;;;;;3.16;65.13;96358.75;5018468;28;20514;-56
2022/02/08 06:15:23;;;;;;;1.63;1.05;;;;;;;2.34;64.88;96239.50;5039807;28;20053;-62
2022/02/08 06:17:57;;;;;;;2.47;1.17;;;;;;;3.01;66.80;96357.44;5024915;28;20064;-62
2022/02/08 06:20:24;;;;;;;1.08;0.70;;;;;;;3.31;63.93;96361.63;5024893;28;20145;-58
2022/02/08 06:22:51;;;;;;;3.50;1.67;;;;;;;3.36;63.27;96380.56;5024948;28;20059;-62
2022/02/08 06:25:18;;;;;;;1.00;0.80;;;;;;;3.19;64.08;96358.88;5040057;28;20075;-63
2022/02/08 06:27:48;;;;;;;3.35;1.48;;;;;;;3.22;67.62;96358.19;5039089;28;20049;-56
2022/02/08 06:30:18;;;;;;;1.58;0.90;;;;;;;3.30;68.38;96417.50;5025690;28;20080;-63
2022/02/08 06:32:45;;;;;;;2.97;1.10;;;;;;;3.28;68.33;96411.56;5025524;28;20065;-57
2022/02/08 06:35:20;;;;;;;3.83;0.93;;;;;;;3.37;67.35;96414.97;5040002;28;20053;-56
2022/02/08 06:37:48;;;;;;;1.20;0.70;;;;;;;3.32;65.33;96417.94;5024677;28;20060;-56
2022/02/08 06:40:14;;;;;;;2.85;1.10;;;;;;;3.41;64.41;96404.97;5024358;28;20049;-62
2022/02/08 06:42:43;;;;;;;1.75;0.80;;;;;;;3.50;63.42;96446.72;5023138;28;20053;-56
2022/02/08 06:45:10;;;;;;;9.82;4.32;;;;;;;3.76;66.60;96436.25;5039425;28;20049;-62
2022/02/08 06:47:38;;;;;;;1.35;1.00;;;;;;;3.61;57.91;96395.03;5024786;28;20512;-62
2022/02/08 06:50:06;;;;;;;3.17;0.88;;;;;;;3.92;59.87;96464.56;5063216;28;20616;-58
2022/02/08 06:52:33;;;;;;;1.48;0.93;;;;;;;3.99;60.03;96470.28;5046599;28;20060;-56
2022/02/08 06:55:02;;;;;;;2.80;1.27;;;;;;;4.10;61.44;96476.91;5064338;28;20055;-56
2022/02/08 06:57:30;;;;;;;3.22;1.08;;;;;;;3.53;63.36;96402.22;5062810;28;20066;-63
2022/02/08 07:00:02;;;;;;;4.55;1.38;;;;;;;4.01;64.35;96495.41;5062369;28;20060;-64
2022/02/08 07:02:29;;;;;;;3.90;1.10;;;;;;;3.73;64.56;96427.94;5064322;28;20063;-63
2022/02/08 07:04:56;;;;;;;7.90;2.47;;;;;;;3.46;62.61;96357.41;5063835;28;20139;-59
2022/02/08 07:07:23;;;;;;;12.57;4.65;;;;;;;3.78;63.84;96403.84;5064232;28;20055;-57
2022/02/08 07:09:50;;;;;;;5.32;1.67;;;;;;;4.14;61.00;96488.78;5063534;28;20049;-63
2022/02/08 07:12:17;;;;;;;4.15;1.83;;;;;;;3.51;61.54;96401.78;5066905;28;20052;-61
2022/02/08 07:14:45;;;;;;;3.70;0.95;;;;;;;3.94;59.87;96478.72;5048038;28;20049;-61
2022/02/08 07:17:12;;;;;;;4.15;1.25;;;;;;;3.86;62.27;96489.78;5056337;28;20049;-58
2022/02/08 07:19:38;;;;;;;4.88;1.23;;;;;;;3.42;61.83;96504.28;5078720;28;20142;-57
2022/02/08 07:22:05;;;;;;;2.38;1.13;;;;;;;3.90;59.56;96472.34;5082125;28;20447;-61
2022/02/08 07:24:32;;;;;;;2.35;1.00;;;;;;;3.47;59.29;96398.13;5083112;28;20402;-58
2022/02/08 07:26:59;;;;;;;2.65;0.85;;;;;;;4.09;59.71;96486.28;5081304;28;20056;-59
2022/02/08 07:29:28;;;;;;;1.15;0.70;;;;;;;4.45;56.17;96519.16;5064314;28;20499;-60
2022/02/08 07:31:59;;;;;;;1.77;0.77;;;;;;;3.52;59.31;96460.88;5078256;28;20045;-57
2022/02/08 07:39:47;;;;;;;4.50;1.77;;;;;;;3.68;62.02;96475.50;5062329;28;20054;-58
2022/02/08 07:42:14;;;;;;;2.72;1.40;;;;;;;4.00;61.22;96482.81;5067954;28;20039;-58
2022/02/08 07:44:41;;;;;;;5.75;1.00;;;;;;;4.43;60.50;96515.97;5068022;28;20052;-63
2022/02/08 07:47:07;;;;;;;7.50;2.60;;;;;;;4.31;60.60;96542.56;5069522;28;20064;-59
2022/02/08 07:49:39;;;;;;;2.60;1.08;;;;;;;3.76;61.72;96504.72;5043584;28;20063;-58
2022/02/08 07:52:07;;;;;;;2.15;1.00;;;;;;;4.47;60.59;96547.00;5047457;28;20447;-57
2022/02/08 07:54:34;;;;;;;3.78;0.98;;;;;;;4.34;59.97;96542.69;5075986;28;20392;-58
2022/02/08 07:57:00;;;;;;;2.75;1.30;;;;;;;4.71;56.86;96572.84;5073553;28;20049;-57
2022/02/08 07:59:27;;;;;;;8.32;1.70;;;;;;;4.60;58.10;96581.53;5071062;28;20522;-60
2022/02/08 08:01:54;;;;;;;5.47;1.20;;;;;;;4.44;57.61;96547.72;5066913;28;20040;-59
2022/02/08 08:04:20;;;;;;;4.28;2.17;;;;;;;4.80;58.47;96581.75;5078957;28;20161;-60
2022/02/08 08:06:52;;;;;;;4.95;1.70;;;;;;;4.60;57.87;96534.91;5074524;28;20114;-59
2022/02/08 08:09:20;;;;;;;7.28;2.88;;;;;;;4.80;56.93;96581.75;5067650;28;20060;-61
2022/02/08 08:11:48;;;;;;;1.80;0.93;;;;;;;4.52;56.81;96645.50;5073688;28;20052;-59
2022/02/08 08:14:16;;;;;;;1.85;0.85;;;;;;;4.63;56.64;96626.69;5082520;28;20058;-55
2022/02/08 08:16:54;;;;;;;1.92;1.08;;;;;;;4.05;55.93;96627.84;5055431;28;20051;-59
2022/02/08 08:19:37;;;;;;;1.70;0.70;;;;;;;4.03;54.37;96563.56;5065332;28;20052;-59
2022/02/08 08:22:06;;;;;;;2.60;1.20;;;;;;;4.53;54.28;96616.16;5069644;28;20429;-64
2022/02/08 08:24:33;;;;;;;3.33;1.20;;;;;;;4.30;52.77;96569.19;5062606;28;20143;-60
2022/02/08 08:27:00;;;;;;;2.53;0.90;;;;;;;4.64;53.22;96618.13;5063690;28;20430;-60
2022/02/08 08:29:27;;;;;;;5.82;1.10;;;;;;;4.40;53.81;96595.34;5071605;28;20044;-58
2022/02/08 08:31:54;;;;;;;4.10;1.50;;;;;;;4.45;55.90;96582.22;5069332;28;20051;-61
2022/02/08 08:34:21;;;;;;;10.65;3.30;;;;;;;4.94;55.29;96642.56;5073242;28;20063;-58
2022/02/08 08:36:50;;;;;;;3.42;1.30;;;;;;;4.40;56.46;96598.91;5075203;28;20055;-61
2022/02/08 08:39:23;;;;;;;1.85;1.35;;;;;;;4.36;54.42;96627.34;5064575;28;20052;-61
2022/02/08 08:50:06;;;;;;;4.07;1.00;;;;;;;4.76;54.31;96680.38;5082983;28;20056;-63
2022/02/08 08:52:47;;;;;;;2.13;0.95;;;;;;;4.53;54.92;96621.63;5086122;28;20060;-63
2022/02/08 08:55:18;;;;;;;3.28;1.90;;;;;;;4.69;56.65;96702.91;5069754;28;20147;-62
2022/02/08 08:57:44;;;;;;;1.58;0.98;;;;;;;4.02;54.78;96568.22;5066053;28;20502;-61
2022/02/08 09:00:12;;;;;;;7.78;2.10;;;;;;;4.45;55.74;96669.97;5066704;28;20059;-63
2022/02/08 09:02:39;;;;;;;15.93;3.47;;;;;;;4.34;56.35;96695.41;5066611;28;20517;-60
2022/02/08 09:05:10;;;;;;;10.80;1.23;;;;;;;4.07;53.58;96642.00;4633397;28;10001426;-60
2022/02/08 09:07:38;;;;;;;2.03;0.90;;;;;;;4.25;54.26;96624.22;4530906;28;10001275;-61
2022/02/08 09:10:07;;;;;;;3.00;1.10;;;;;;;3.82;56.15;96667.72;5106345;28;20075;-61
2022/02/08 09:12:54;;;;;;;1.77;1.10;;;;;;;3.97;55.73;96652.56;5108547;27;20044;-60
2022/02/08 09:30:42;;;;;;;1.25;0.88;;;;;;;4.61;53.97;96683.81;5121536;27;20057;-61
2022/02/08 09:33:09;;;;;;;1.08;0.73;;;;;;;5.11;53.72;96710.94;5105106;28;20074;-59
2022/02/08 09:35:37;;;;;;;5.72;2.33;;;;;;;3.72;57.90;96616.09;5104951;28;20043;-65
2022/02/08 09:38:04;;;;;;;1.00;0.90;;;;;;;4.87;50.58;96719.16;5086855;28;20058;-59
2022/02/08 09:40:30;;;;;;;5.88;1.20;;;;;;;3.31;50.95;96416.34;5106103;28;20052;-63
2022/02/08 09:42:58;;;;;;;2.45;1.10;;;;;;;5.04;50.42;96658.56;5105548;28;20051;-60
2022/02/08 09:45:25;;;;;;;1.08;0.85;;;;;;;3.94;50.71;96391.06;5124779;27;20062;-63
2022/02/08 09:50:28;;;;;;;1.42;0.88;;;;;;;5.51;51.93;96717.31;5117918;27;20062;-60
2022/02/08 09:52:58;;;;;;;2.95;1.27;;;;;;;5.27;52.39;96640.47;5120285;27;20565;-67
2022/02/08 09:55:28;;;;;;;2.47;1.00;;;;;;;5.49;53.48;96690.19;5093466;27;20051;-66
2022/02/08 09:57:55;;;;;;;1.50;0.70;;;;;;;5.50;47.98;96672.56;5085876;28;20047;-62
2022/02/08 10:00:24;;;;;;;3.53;1.40;;;;;;;5.46;46.99;96626.91;5105191;28;20048;-60
2022/02/08 10:03:02;;;;;;;2.55;1.10;;;;;;;4.05;50.90;96448.91;5086563;28;20055;-66
2022/02/08 10:05:40;;;;;;;4.47;1.65;;;;;;;5.55;47.95;96691.56;5087557;28;20047;-59
2022/02/08 10:08:07;;;;;;;1.50;1.00;;;;;;;5.11;50.96;96653.28;5105146;28;20059;-61
2022/02/08 10:10:34;;;;;;;2.42;1.30;;;;;;;5.28;48.97;96609.13;5105654;28;20440;-65
2022/02/08 10:24:05;;;;;;;1.33;0.80;;;;;;;4.75;50.52;96606.66;5126166;27;20165;-62
2022/02/08 10:26:43;;;;;;;2.15;1.10;;;;;;;5.18;49.83;96653.53;5125931;27;20046;-63
2022/02/08 10:29:21;;;;;;;4.47;0.95;;;;;;;5.78;50.54;96700.09;5125452;27;20059;-62
2022/02/08 10:40:17;;;;;;;3.45;1.20;;;;;;;5.74;52.95;96630.47;5104883;28;20562;-63
2022/02/08 10:43:03;;;;;;;4.70;2.03;;;;;;;3.53;51.66;96393.22;5088339;27;20158;-61
2022/02/08 10:45:32;;;;;;;3.63;1.27;;;;;;;5.92;51.69;96700.53;5104697;27;20140;-61
2022/02/08 10:48:02;;;;;;;2.00;1.10;;;;;;;6.41;50.51;96673.63;5103441;28;20056;-62
2022/02/08 10:50:33;;;;;;;3.50;1.85;;;;;;;6.43;48.34;96641.88;5089580;28;20054;-61
2022/02/08 10:53:03;;;;;;;1.67;1.08;;;;;;;7.01;46.58;96687.78;5090184;28;20078;-60
2022/02/08 10:58:36;;;;;;;1.45;1.10;;;;;;;7.42;47.39;96687.22;5104383;28;20055;-60
2022/02/08 11:04:22;;;;;;;1.50;0.90;;;;;;;6.55;45.61;96661.03;5104120;28;20561;-62
2022/02/08 11:06:32;;;;;;;1.08;0.98;;;;;;;5.90;46.97;96601.13;5095876;28;20044;-63
2022/02/08 11:22:42;;;;;;;1.00;0.88;;;;;;;5.88;47.05;96705.16;5063721;28;20418;-61
2022/02/08 11:25:36;;;;;;;3.40;0.90;;;;;;;5.88;47.79;96699.66;5075284;28;20149;-62
2022/02/08 11:28:09;;;;;;;;;;;;;;;6.03;46.84;96701.66;5079801;28;20517;-65
2022/02/08 11:53:29;;;;;;;3.85;1.95;;;;;;;6.20;49.36;96739.84;5061884;28;20589;-63
2022/02/08 12:01:48;;;;;;;4.05;1.38;;;;;;;5.74;49.98;96704.66;5064149;28;20044;-59
2022/02/08 12:09:48;;;;;;;2.28;1.65;;;;;;;6.47;49.94;96766.53;5083457;28;20493;-62
2022/02/08 12:59:39;;;;;;;3.65;1.88;;;;;;;5.09;53.20;96796.38;5106299;28;20540;-63
2022/02/08 13:02:32;;;;;;;3.35;1.92;;;;;;;4.90;52.18;96748.66;5121345;27;20627;-60
2022/02/08 13:32:26;;;;;;;2.45;1.60;;;;;;;5.52;51.26;96853.50;5126552;27;20124;-63
2022/02/08 14:06:39;;;;;;;4.00;2.75;;;;;;;5.66;50.17;96914.41;5105875;28;20052;-64
2022/02/08 14:22:46;;;;;;;3.28;1.60;;;;;;;5.87;47.11;96902.22;5104449;28;20048;-62
2022/02/08 14:36:54;;;;;;;2.42;1.48;;;;;;;5.84;47.08;96957.06;5104118;28;20437;-58
2022/02/08 15:09:34;;;;;;;4.10;1.85;;;;;;;5.47;44.89;96953.41;5120207;27;20067;-59
2022/02/08 15:12:14;;;;;;;9.55;4.30;;;;;;;5.54;45.73;96994.06;5122198;27;20051;-61
2022/02/08 15:17:14;;;;;;;3.22;1.58;;;;;;;5.39;44.98;96983.75;5103159;28;20067;-62
2022/02/08 15:19:44;;;;;;;2.75;1.55;;;;;;;5.22;44.35;96978.38;5103219;28;20047;-61
2022/02/08 15:22:11;;;;;;;2.33;1.45;;;;;;;5.19;44.92;96968.09;5102943;28;20511;-59
2022/02/08 15:24:40;;;;;;;3.58;1.58;;;;;;;4.90;44.64;96921.56;5103095;28;20479;-64
2022/02/08 15:27:09;;;;;;;5.53;2.30;;;;;;;4.86;45.16;96909.63;5084494;28;20051;-56
2022/02/08 15:29:36;;;;;;;6.25;2.13;;;;;;;5.39;45.05;96972.75;5100481;28;20047;-59
2022/02/08 15:32:05;;;;;;;3.50;1.75;;;;;;;4.85;44.50;96903.34;5099565;28;20813;-63
2022/02/08 15:34:32;;;;;;;2.25;1.17;;;;;;;5.25;45.62;96999.72;5102492;28;20547;-58
2022/02/08 15:36:59;;;;;;;1.70;0.90;;;;;;;5.02;44.57;96992.94;5103047;28;20051;-61
2022/02/08 15:39:25;;;;;;;1.65;1.10;;;;;;;4.60;45.27;96954.53;5084449;28;20050;-59
2022/02/08 15:41:52;;;;;;;4.25;1.00;;;;;;;3.15;42.34;96727.31;5085454;28;20054;-57
2022/02/08 15:44:22;;;;;;;2.75;1.05;;;;;;;5.09;40.27;97006.94;5103775;28;20059;-58
2022/02/08 15:46:52;;;;;;;1.95;1.38;;;;;;;5.11;41.96;97026.63;5106685;28;20038;-59
2022/02/08 15:49:18;;;;;;;5.80;1.83;;;;;;;4.82;42.86;96975.34;5123383;27;20509;-56
2022/02/08 15:51:48;;;;;;;2.60;1.13;;;;;;;4.83;40.78;96965.19;5117878;27;20044;-58
2022/02/08 16:05:19;;;;;;;2.97;1.13;;;;;;;4.90;40.70;97053.28;5103017;28;20047;-60
2022/02/08 16:07:16;;;;;;;2.00;1.10;;;;;;;4.72;41.16;97013.34;5104160;28;20052;-58
2022/02/08 16:20:34;;;;;;;1.70;1.23;;;;;;;4.61;42.17;97043.94;5103036;28;20440;-57
2022/02/08 16:58:25;;;;;;;2.65;0.95;;;;;;;4.57;40.59;97128.00;5097391;28;20047;-59
2022/02/08 17:00:39;;;;;;;2.67;1.08;;;;;;;4.22;41.51;97082.66;5080156;28;20048;-61
2022/02/08 17:03:16;;;;;;;1.60;0.95;;;;;;;4.79;42.11;97156.31;5082819;28;20505;-59
2022/02/08 17:05:43;;;;;;;1.27;1.08;;;;;;;4.00;42.60;97030.84;5083164;28;20050;-58
2022/02/08 17:08:12;;;;;;;4.20;1.15;;;;;;;4.55;43.00;97124.78;5083037;28;20091;-59
2022/02/08 17:10:43;;;;;;;3.92;0.90;;;;;;;4.46;43.28;97148.72;5082646;28;20510;-57
2022/02/08 17:47:49;;;;;;;3.00;1.50;;;;;;;4.65;41.20;97184.78;5086103;28;20055;-61
2022/02/08 17:50:18;;;;;;;2.75;1.00;;;;;;;4.42;42.25;97146.97;5084557;28;20437;-59
2022/02/08 17:52:47;;;;;;;5.65;2.13;;;;;;;4.71;42.18;97182.63;5085870;28;20063;-58
2022/02/08 17:55:15;;;;;;;2.88;0.90;;;;;;;4.50;43.55;97190.78;5084746;28;20270;-56
2022/02/08 17:57:43;;;;;;;3.83;0.93;;;;;;;4.53;42.71;97192.09;5085639;28;20418;-60
2022/02/08 18:00:12;;;;;;;2.72;0.80;;;;;;;4.29;43.50;97213.75;5085346;28;20056;-59
2022/02/08 18:02:40;;;;;;;2.50;1.23;;;;;;;4.33;42.21;97165.38;5085607;28;20048;-58
2022/02/08 18:05:08;;;;;;;1.83;1.00;;;;;;;4.64;42.89;97220.78;5085621;28;20048;-58
2022/02/08 18:07:36;;;;;;;1.58;0.90;;;;;;;4.57;41.71;97198.50;5086253;28;20048;-57
2022/02/08 18:10:08;;;;;;;2.75;1.13;;;;;;;4.37;41.28;97167.13;5067756;28;20131;-60
2022/02/08 18:12:37;;;;;;;3.50;1.45;;;;;;;4.72;41.65;97221.88;5067436;28;20059;-58
2022/02/08 18:15:09;;;;;;;6.97;1.58;;;;;;;4.60;42.11;97220.63;5085112;28;20052;-59
2022/02/08 18:18:01;;;;;;;5.25;1.23;;;;;;;4.60;41.57;97226.09;5085563;28;20048;-57
2022/02/08 19:19:49;;;;;;;1.63;0.80;;;;;;;3.84;43.35;97283.78;5104651;28;20051;-59
2022/02/08 19:22:19;;;;;;;;;;;;;;;4.10;43.20;97321.00;5104944;28;20086;-58
2022/02/08 19:24:46;;;;;;;2.40;1.00;;;;;;;4.16;42.09;97349.88;5104234;28;19931;-59
2022/02/08 19:27:13;;;;;;;2.28;0.90;;;;;;;4.15;42.27;97340.06;5086073;28;20074;-57
2022/02/08 19:29:40;;;;;;;14.70;6.32;;;;;;;4.13;43.17;97344.22;5104159;28;20138;-57
2022/02/08 19:32:08;;;;;;;6.32;1.80;;;;;;;4.22;43.00;97365.03;5104856;28;20046;-57
2022/02/08 19:34:42;;;;;;;5.15;1.90;;;;;;;3.57;42.71;97252.00;5103607;28;20055;-60
2022/02/08 19:37:11;;;;;;;11.35;3.53;;;;;;;4.26;42.79;97360.53;5104234;28;20052;-60
2022/02/08 19:39:40;;;;;;;6.10;2.38;;;;;;;3.90;42.35;97343.56;5086033;28;20646;-58
2022/02/08 19:42:08;;;;;;;7.00;1.52;;;;;;;3.71;42.80;97296.50;5104056;28;20051;-58
2022/02/08 19:44:36;;;;;;;3.20;1.20;;;;;;;4.20;43.45;97375.53;5085804;28;20063;-61
2022/02/08 19:47:04;;;;;;;2.13;1.05;;;;;;;4.21;42.31;97366.16;5103866;28;20139;-58
2022/02/08 19:49:32;;;;;;;6.38;1.10;;;;;;;4.01;42.19;97333.91;5104318;28;21004;-59
2022/02/08 19:51:59;;;;;;;2.42;1.20;;;;;;;4.21;42.20;97368.91;5104062;28;20056;-59
2022/02/08 19:54:29;;;;;;;6.78;2.85;;;;;;;4.45;42.98;97399.41;5104574;28;20286;-58
2022/02/08 19:57:04;;;;;;;8.38;1.80;;;;;;;4.16;43.32;97362.75;5103613;28;20601;-58
2022/02/08 19:59:37;;;;;;;4.47;1.20;;;;;;;4.34;41.81;97398.13;5096462;28;20052;-57
2022/02/08 20:02:12;;;;;;;4.05;0.90;;;;;;;4.37;42.16;97397.47;5083449;28;20056;-59
2022/02/08 20:04:39;;;;;;;7.63;1.35;;;;;;;4.29;42.64;97409.25;5083649;28;20143;-58
2022/02/08 20:07:06;;;;;;;3.38;1.70;;;;;;;4.10;43.81;97380.50;5083858;28;20074;-58
2022/02/08 20:09:33;;;;;;;3.97;1.30;;;;;;;3.94;43.69;97390.31;5084480;28;20044;-58
2022/02/08 20:12:19;;;;;;;7.70;2.25;;;;;;;4.04;44.34;97377.13;5083682;28;20559;-60
2022/02/08 20:14:51;;;;;;;3.25;1.30;;;;;;;4.20;44.38;97413.91;5083678;28;20075;-60
2022/02/08 20:17:18;;;;;;;4.30;1.38;;;;;;;4.19;44.74;97411.47;5083094;28;20052;-58
2022/02/08 20:19:46;;;;;;;11.45;2.45;;;;;;;4.11;45.25;97404.84;5083764;28;20052;-60
2022/02/08 20:22:14;;;;;;;9.05;2.38;;;;;;;4.09;45.65;97389.88;5083036;28;20048;-60
2022/02/08 20:24:40;;;;;;;17.27;4.40;;;;;;;4.14;45.77;97406.94;5083317;28;20054;-59
2022/02/08 20:29:55;;;;;;;;;;;;;;;4.08;47.32;97421.94;5084022;28;20044;-60
2022/02/08 20:32:21;;;;;;;7.82;2.75;;;;;;;3.65;46.96;97390.09;5065664;28;19920;-58
2022/02/08 20:34:48;;;;;;;22.83;6.65;;;;;;;3.98;47.22;97427.72;5083052;28;20052;-60
2022/02/08 20:37:15;;;;;;;28.52;9.55;;;;;;;3.88;48.52;97433.50;5065011;28;20601;-59
2022/02/08 20:39:42;;;;;;;16.08;5.30;;;;;;;3.71;49.43;97422.50;5083610;28;20107;-60
2022/02/08 20:42:09;;;;;;;22.90;6.00;;;;;;;3.70;50.01;97425.56;5065321;28;20048;-57
2022/02/08 20:44:38;;;;;;;27.13;7.35;;;;;;;3.52;49.55;97424.66;5083474;28;20395;-59